createdAt,value
2017-04-25T00:00:48.467Z,99462.63
2017-04-25T00:01:49.624Z,99460.15
2017-04-25T00:02:50.931Z,99455.76
2017-04-25T00:03:52.202Z,99457.45
2017-04-25T00:04:53.609Z,99453.23
2017-04-25T00:05:54.873Z,99458.48
2017-04-25T00:06:56.052Z,99450.02
2017-04-25T00:07:57.318Z,99446.77
2017-04-25T00:08:58.684Z,99450.48
2017-04-25T00:10:00.625Z,99450.70
2017-04-25T00:11:02.308Z,99442.87
2017-04-25T00:12:03.540Z,99441.09
2017-04-25T00:13:05.055Z,99438.76
2017-04-25T00:14:06.277Z,99436.14
2017-04-25T00:15:07.375Z,99432.70
2017-04-25T00:16:08.665Z,99436.49
2017-04-25T00:17:10.007Z,99435.32
2017-04-25T00:18:11.338Z,99433.52
2017-04-25T00:19:12.458Z,99433.52
2017-04-25T00:20:13.605Z,99426.72
2017-04-25T00:21:14.941Z,99425.69
2017-04-25T00:23:22.522Z,99428.23
2017-04-25T00:24:23.671Z,99420.19
2017-04-25T00:25:24.993Z,99419.16
2017-04-25T00:26:26.282Z,99414.17
2017-04-25T00:27:27.505Z,99415.66
2017-04-25T00:28:28.601Z,99410.63
2017-04-25T00:29:29.733Z,99409.92
2017-04-25T00:30:32.352Z,99414.17
2017-04-25T00:31:33.439Z,99411.77
2017-04-25T00:32:34.674Z,99408.40
2017-04-25T00:33:36.099Z,99411.52
2017-04-25T00:34:37.131Z,99406.06
2017-04-25T00:35:38.693Z,99400.90
2017-04-25T00:36:39.806Z,99400.86
2017-04-25T00:37:40.874Z,99398.48
2017-04-25T00:38:42.171Z,99397.18
2017-04-25T00:39:43.379Z,99395.91
2017-04-25T00:40:44.649Z,99398.63
2017-04-25T00:41:45.784Z,99391.73
2017-04-25T00:42:47.207Z,99391.16
2017-04-25T00:43:48.356Z,99399.52
2017-04-25T00:44:49.522Z,99388.08
2017-04-25T00:45:50.870Z,99390.70
2017-04-25T00:46:52.023Z,99389.03
2017-04-25T00:47:53.856Z,99377.95
2017-04-25T00:48:55.194Z,99381.63
2017-04-25T00:49:57.455Z,99376.42
2017-04-25T00:50:58.803Z,99376.42
2017-04-25T00:52:00.049Z,99379.47
2017-04-25T00:53:01.376Z,99374.83
2017-04-25T00:54:02.517Z,99367.89
2017-04-25T00:55:05.176Z,99367.50
2017-04-25T00:56:06.500Z,99369.80
2017-04-25T00:57:07.636Z,99364.45
2017-04-25T00:58:09.016Z,99370.68
2017-04-25T00:59:10.219Z,99368.24
2017-04-25T01:00:12.105Z,99362.37
2017-04-25T01:01:13.133Z,99359.33
2017-04-25T01:02:14.161Z,99361.98
2017-04-25T01:03:15.609Z,99359.82
2017-04-25T01:04:16.763Z,99353.20
2017-04-25T01:05:17.902Z,99357.56
2017-04-25T01:06:19.142Z,99352.92
2017-04-25T01:07:20.363Z,99349.84
2017-04-25T01:08:22.135Z,99347.19
2017-04-25T01:09:23.272Z,99347.33
2017-04-25T01:10:25.172Z,99348.63
2017-04-25T01:11:26.129Z,99347.28
2017-04-25T01:12:27.313Z,99349.41
2017-04-25T01:13:28.363Z,99345.91
2017-04-25T01:14:29.893Z,99339.75
2017-04-25T01:15:31.015Z,99344.60
2017-04-25T01:16:32.027Z,99340.63
2017-04-25T01:17:33.283Z,99341.66
2017-04-25T01:18:34.539Z,99338.16
2017-04-25T01:19:35.538Z,99340.59
2017-04-25T01:20:36.509Z,99337.95
2017-04-25T01:21:37.677Z,99337.48
2017-04-25T01:22:38.659Z,99337.41
2017-04-25T01:23:39.694Z,99330.51
2017-04-25T01:24:40.869Z,99336.66
2017-04-25T01:25:42.001Z,99334.55
2017-04-25T01:26:43.551Z,99331.19
2017-04-25T01:27:45.089Z,99335.36
2017-04-25T01:28:46.318Z,99328.53
2017-04-25T01:29:47.279Z,99323.08
2017-04-25T01:30:48.408Z,99323.42
2017-04-25T01:31:49.593Z,99327.56
2017-04-25T01:32:50.740Z,99318.08
2017-04-25T01:33:51.934Z,99322.25
2017-04-25T01:34:53.163Z,99326.98
2017-04-25T01:35:54.117Z,99321.95
2017-04-25T01:36:55.261Z,99317.89
2017-04-25T01:37:56.527Z,99320.42
2017-04-25T01:38:57.762Z,99314.52
2017-04-25T01:39:59.178Z,99315.36
2017-04-25T01:41:00.730Z,99310.16
2017-04-25T01:42:01.979Z,99311.11
2017-04-25T01:43:03.116Z,99309.88
2017-04-25T01:44:04.496Z,99311.19
2017-04-25T01:45:05.885Z,99307.27
2017-04-25T01:46:07.130Z,99310.16
2017-04-25T01:47:08.654Z,99307.47
2017-04-25T01:48:09.786Z,99308.02
2017-04-25T01:49:11.021Z,99304.99
2017-04-25T01:50:12.479Z,99299.63
2017-04-25T01:51:13.905Z,99298.80
2017-04-25T01:52:15.151Z,99296.95
2017-04-25T01:53:16.388Z,99295.86
2017-04-25T01:54:17.712Z,99298.71
2017-04-25T01:55:19.273Z,99299.75
2017-04-25T01:56:20.813Z,99299.45
2017-04-25T01:57:21.837Z,99300.58
2017-04-25T01:58:23.108Z,99298.02
2017-04-25T01:59:24.598Z,99300.46
2017-04-25T02:00:25.838Z,99300.00
2017-04-25T02:01:27.279Z,99297.13
2017-04-25T02:02:28.632Z,99295.76
2017-04-25T02:03:29.854Z,99296.91
2017-04-25T02:04:30.885Z,99297.08
2017-04-25T02:05:32.070Z,99295.29
2017-04-25T02:06:33.865Z,99291.53
2017-04-25T02:07:35.524Z,99289.87
2017-04-25T02:08:36.698Z,99287.90
2017-04-25T02:09:38.259Z,99288.95
2017-04-25T02:10:39.301Z,99290.69
2017-04-25T02:11:40.502Z,99285.98
2017-04-25T02:12:41.574Z,99280.28
2017-04-25T02:13:42.744Z,99280.80
2017-04-25T02:14:43.871Z,99280.70
2017-04-25T02:15:45.147Z,99275.81
2017-04-25T02:16:46.359Z,99274.20
2017-04-25T02:17:47.589Z,99276.98
2017-04-25T02:18:48.755Z,99280.53
2017-04-25T02:19:49.912Z,99274.31
2017-04-25T02:20:51.122Z,99269.05
2017-04-25T02:21:52.442Z,99274.14
2017-04-25T02:22:53.894Z,99276.02
2017-04-25T02:23:55.751Z,99272.52
2017-04-25T02:24:56.884Z,99272.23
2017-04-25T02:25:58.465Z,99271.66
2017-04-25T02:26:59.745Z,99272.73
2017-04-25T02:28:00.886Z,99272.80
2017-04-25T02:29:02.249Z,99275.64
2017-04-25T02:30:03.500Z,99273.27
2017-04-25T02:31:04.727Z,99269.48
2017-04-25T02:32:05.939Z,99265.30
2017-04-25T02:33:06.918Z,99259.31
2017-04-25T02:34:08.012Z,99252.00
2017-04-25T02:35:09.097Z,99257.94
2017-04-25T02:36:10.329Z,99254.63
2017-04-25T02:37:11.490Z,99250.28
2017-04-25T02:38:12.812Z,99249.52
2017-04-25T02:39:13.969Z,99244.52
2017-04-25T02:40:15.102Z,99249.91
2017-04-25T02:41:16.121Z,99248.05
2017-04-25T02:42:17.331Z,99247.82
2017-04-25T02:43:18.644Z,99249.19
2017-04-25T02:44:19.867Z,99243.38
2017-04-25T02:45:21.318Z,99239.64
2017-04-25T02:46:22.644Z,99235.76
2017-04-25T02:47:23.981Z,99234.31
2017-04-25T02:48:25.346Z,99236.02
2017-04-25T02:49:26.845Z,99234.36
2017-04-25T02:50:28.202Z,99230.68
2017-04-25T02:51:29.763Z,99238.92
2017-04-25T02:52:30.942Z,99233.97
2017-04-25T02:53:32.212Z,99235.66
2017-04-25T02:54:33.450Z,99240.95
2017-04-25T02:55:34.788Z,99236.26
2017-04-25T02:56:36.239Z,99238.58
2017-04-25T02:57:37.707Z,99241.32
2017-04-25T02:58:39.032Z,99234.75
2017-04-25T02:59:40.090Z,99232.70
2017-04-25T03:00:41.418Z,99234.39
2017-04-25T03:01:42.553Z,99230.93
2017-04-25T03:02:44.098Z,99235.73
2017-04-25T03:03:45.048Z,99237.08
2017-04-25T03:04:46.337Z,99240.08
2017-04-25T03:05:47.681Z,99244.49
2017-04-25T03:06:48.859Z,99240.88
2017-04-25T03:07:50.035Z,99243.42
2017-04-25T03:08:51.293Z,99243.16
2017-04-25T03:09:52.732Z,99249.77
2017-04-25T03:10:53.984Z,99244.30
2017-04-25T03:11:55.354Z,99250.06
2017-04-25T03:12:56.848Z,99252.44
2017-04-25T03:13:58.296Z,99253.72
2017-04-25T03:14:59.319Z,99250.25
2017-04-25T03:16:00.757Z,99243.95
2017-04-25T03:17:01.908Z,99236.47
2017-04-25T03:18:03.350Z,99243.52
2017-04-25T03:19:04.542Z,99234.86
2017-04-25T03:20:05.910Z,99236.53
2017-04-25T03:21:06.965Z,99233.27
2017-04-25T03:22:08.413Z,99238.82
2017-04-25T03:23:09.776Z,99242.31
2017-04-25T03:24:11.087Z,99237.94
2017-04-25T03:25:12.317Z,99237.09
2017-04-25T03:26:13.589Z,99239.14
2017-04-25T03:27:14.927Z,99237.35
2017-04-25T03:28:16.287Z,99237.25
2017-04-25T03:29:17.569Z,99233.40
2017-04-25T03:30:18.695Z,99227.39
2017-04-25T03:31:20.032Z,99232.68
2017-04-25T03:32:21.138Z,99222.94
2017-04-25T03:34:22.615Z,99222.45
2017-04-25T03:36:23.751Z,99219.02
2017-04-25T03:37:24.973Z,99217.09
2017-04-25T03:38:25.986Z,99220.52
2017-04-25T03:39:27.209Z,99212.64
2017-04-25T03:41:28.598Z,99217.71
2017-04-25T03:42:29.868Z,99219.86
2017-04-25T03:43:31.069Z,99213.06
2017-04-25T03:44:32.510Z,99221.64
2017-04-25T03:45:33.958Z,99215.63
2017-04-25T03:46:35.161Z,99226.61
2017-04-25T03:47:36.419Z,99224.94
2017-04-25T03:48:37.753Z,99224.09
2017-04-25T03:49:39.093Z,99228.20
2017-04-25T03:50:40.406Z,99221.73
2017-04-25T03:51:42.080Z,99229.19
2017-04-25T03:52:43.418Z,99225.03
2017-04-25T03:53:44.696Z,99219.55
2017-04-25T03:54:46.085Z,99230.16
2017-04-25T03:55:47.430Z,99226.01
2017-04-25T03:56:48.697Z,99220.75
2017-04-25T03:57:50.078Z,99217.55
2017-04-25T03:58:51.358Z,99216.64
2017-04-25T03:59:52.754Z,99217.84
2017-04-25T04:00:54.449Z,99223.07
2017-04-25T04:01:55.753Z,99226.89
2017-04-25T04:02:57.103Z,99217.63
2017-04-25T04:03:58.332Z,99215.59
2017-04-25T04:04:59.649Z,99217.56
2017-04-25T04:06:00.817Z,99218.77
2017-04-25T04:07:02.198Z,99222.33
2017-04-25T04:08:03.591Z,99224.55
2017-04-25T04:09:05.934Z,99222.39
2017-04-25T04:10:07.168Z,99219.91
2017-04-25T04:11:08.570Z,99221.05
2017-04-25T04:12:09.865Z,99215.39
2017-04-25T04:13:11.232Z,99212.16
2017-04-25T04:14:12.628Z,99212.12
2017-04-25T04:15:14.183Z,99212.91
2017-04-25T04:16:15.582Z,99217.45
2017-04-25T04:17:16.927Z,99210.81
2017-04-25T04:18:18.270Z,99205.37
2017-04-25T04:19:19.617Z,99208.41
2017-04-25T04:20:20.844Z,99211.59
2017-04-25T04:21:21.951Z,99210.84
2017-04-25T04:22:23.314Z,99208.55
2017-04-25T04:23:24.569Z,99206.46
2017-04-25T04:24:25.881Z,99208.89
2017-04-25T04:25:27.196Z,99208.46
2017-04-25T04:26:28.563Z,99209.86
2017-04-25T04:27:30.079Z,99205.64
2017-04-25T04:28:31.445Z,99204.27
2017-04-25T04:29:32.698Z,99200.35
2017-04-25T04:30:34.027Z,99202.12
2017-04-25T04:31:35.180Z,99205.88
2017-04-25T04:32:36.696Z,99213.25
2017-04-25T04:33:37.875Z,99213.45
2017-04-25T04:34:39.492Z,99209.56
2017-04-25T04:35:40.856Z,99211.11
2017-04-25T04:36:42.060Z,99215.78
2017-04-25T04:37:43.449Z,99211.16
2017-04-25T04:38:44.739Z,99209.14
2017-04-25T04:39:45.912Z,99208.28
2017-04-25T04:40:47.130Z,99210.02
2017-04-25T04:41:48.555Z,99210.34
2017-04-25T04:42:49.755Z,99206.34
2017-04-25T04:43:50.870Z,99214.80
2017-04-25T04:44:52.269Z,99214.97
2017-04-25T04:45:53.535Z,99214.48
2017-04-25T04:46:54.847Z,99214.45
2017-04-25T04:47:56.101Z,99217.35
2017-04-25T04:48:57.456Z,99220.81
2017-04-25T04:49:58.818Z,99216.21
2017-04-25T04:50:59.972Z,99219.12
2017-04-25T04:52:01.224Z,99219.08
2017-04-25T04:53:02.396Z,99217.47
2017-04-25T04:54:04.094Z,99214.33
2017-04-25T04:55:05.306Z,99215.24
2017-04-25T04:56:06.800Z,99211.67
2017-04-25T04:57:08.182Z,99212.03
2017-04-25T04:58:09.595Z,99218.53
2017-04-25T04:59:10.910Z,99213.73
2017-04-25T05:00:12.258Z,99218.79
2017-04-25T05:01:13.693Z,99219.44
2017-04-25T05:02:14.663Z,99221.10
2017-04-25T05:03:16.082Z,99219.98
2017-04-25T05:04:17.476Z,99218.07
2017-04-25T05:05:18.834Z,99219.77
2017-04-25T05:06:20.071Z,99216.70
2017-04-25T05:07:21.312Z,99213.37
2017-04-25T05:08:22.655Z,99214.08
2017-04-25T05:09:23.982Z,99209.70
2017-04-25T05:10:25.138Z,99215.60
2017-04-25T05:11:26.438Z,99209.98
2017-04-25T05:12:27.548Z,99214.58
2017-04-25T05:13:29.016Z,99213.09
2017-04-25T05:14:30.556Z,99219.50
2017-04-25T05:15:31.966Z,99220.81
2017-04-25T05:16:33.322Z,99222.75
2017-04-25T05:17:34.970Z,99220.13
2017-04-25T05:18:36.319Z,99222.22
2017-04-25T05:19:37.604Z,99220.03
2017-04-25T05:20:39.085Z,99217.77
2017-04-25T05:21:40.382Z,99226.89
2017-04-25T05:22:41.611Z,99224.20
2017-04-25T05:23:42.953Z,99227.59
2017-04-25T05:24:44.125Z,99229.86
2017-04-25T05:25:45.338Z,99237.58
2017-04-25T05:26:46.455Z,99229.58
2017-04-25T05:27:47.643Z,99229.23
2017-04-25T05:28:48.793Z,99229.55
2017-04-25T05:29:50.000Z,99228.98
2017-04-25T05:30:51.224Z,99228.66
2017-04-25T05:31:52.431Z,99228.63
2017-04-25T05:32:53.591Z,99229.48
2017-04-25T05:33:54.796Z,99227.75
2017-04-25T05:34:55.901Z,99234.89
2017-04-25T05:35:57.137Z,99238.46
2017-04-25T05:36:58.447Z,99236.59
2017-04-25T05:37:59.622Z,99238.39
2017-04-25T05:39:00.817Z,99243.52
2017-04-25T05:40:02.028Z,99236.45
2017-04-25T05:41:03.085Z,99235.88
2017-04-25T05:42:04.274Z,99238.58
2017-04-25T05:43:05.324Z,99234.47
2017-04-25T05:44:06.489Z,99235.70
2017-04-25T05:45:07.808Z,99239.21
2017-04-25T05:46:09.056Z,99237.90
2017-04-25T05:47:10.272Z,99237.90
2017-04-25T05:48:11.466Z,99238.61
2017-04-25T05:49:12.655Z,99240.20
2017-04-25T05:50:13.920Z,99239.74
2017-04-25T05:51:15.241Z,99242.75
2017-04-25T05:52:16.392Z,99240.73
2017-04-25T05:53:17.576Z,99244.55
2017-04-25T05:54:18.509Z,99247.28
2017-04-25T05:55:19.634Z,99249.75
2017-04-25T05:56:20.832Z,99254.42
2017-04-25T05:57:22.005Z,99245.08
2017-04-25T05:58:23.144Z,99251.27
2017-04-25T05:59:24.285Z,99252.77
2017-04-25T06:00:25.418Z,99257.39
2017-04-25T06:01:26.465Z,99251.20
2017-04-25T06:02:27.693Z,99254.48
2017-04-25T06:03:28.857Z,99250.45
2017-04-25T06:04:30.215Z,99251.55
2017-04-25T06:05:31.191Z,99246.41
2017-04-25T06:06:32.762Z,99249.64
2017-04-25T06:07:33.921Z,99246.44
2017-04-25T06:08:35.070Z,99248.22
2017-04-25T06:09:36.227Z,99249.42
2017-04-25T06:10:37.661Z,99247.22
2017-04-25T06:11:38.820Z,99244.00
2017-04-25T06:12:40.421Z,99253.66
2017-04-25T06:13:41.547Z,99249.62
2017-04-25T06:14:42.667Z,99244.38
2017-04-25T06:15:43.922Z,99245.05
2017-04-25T06:16:45.046Z,99246.18
2017-04-25T06:17:46.299Z,99252.09
2017-04-25T06:18:47.488Z,99253.64
2017-04-25T06:19:48.937Z,99257.34
2017-04-25T06:20:50.086Z,99256.11
2017-04-25T06:21:51.216Z,99256.61
2017-04-25T06:22:52.243Z,99254.66
2017-04-25T06:23:53.362Z,99253.64
2017-04-25T06:24:54.613Z,99246.42
2017-04-25T06:25:55.753Z,99251.91
2017-04-25T06:26:56.938Z,99251.05
2017-04-25T06:27:58.159Z,99256.64
2017-04-25T06:28:59.391Z,99252.37
2017-04-25T06:30:00.356Z,99257.39
2017-04-25T06:31:01.515Z,99256.02
2017-04-25T06:32:02.646Z,99250.83
2017-04-25T06:33:04.053Z,99253.84
2017-04-25T06:34:05.251Z,99254.00
2017-04-25T06:35:06.395Z,99255.69
2017-04-25T06:36:08.493Z,99261.92
2017-04-25T06:37:09.632Z,99255.69
2017-04-25T06:38:10.767Z,99256.81
2017-04-25T06:39:11.976Z,99263.25
2017-04-25T06:40:13.781Z,99253.09
2017-04-25T06:41:14.921Z,99260.80
2017-04-25T06:42:16.069Z,99266.43
2017-04-25T06:43:17.218Z,99260.27
2017-04-25T06:44:18.453Z,99268.45
2017-04-25T06:45:19.408Z,99271.39
2017-04-25T06:46:20.561Z,99275.50
2017-04-25T06:47:22.882Z,99279.20
2017-04-25T06:48:24.045Z,99281.12
2017-04-25T06:49:25.229Z,99283.35
2017-04-25T06:50:26.372Z,99292.14
2017-04-25T06:51:27.553Z,99295.65
2017-04-25T06:52:28.694Z,99292.63
2017-04-25T06:53:29.663Z,99298.62
2017-04-25T06:54:30.841Z,99295.89
2017-04-25T06:55:32.461Z,99298.86
2017-04-25T06:56:33.452Z,99298.35
2017-04-25T06:57:34.649Z,99304.02
2017-04-25T06:58:35.812Z,99312.09
2017-04-25T06:59:37.028Z,99311.60
2017-04-25T07:00:38.285Z,99319.89
2017-04-25T07:01:39.414Z,99325.13
2017-04-25T07:02:43.498Z,99322.16
2017-04-25T07:03:45.697Z,99322.27
2017-04-25T07:04:46.882Z,99318.23
2017-04-25T07:05:48.221Z,99318.58
2017-04-25T07:06:49.499Z,99323.33
2017-04-25T07:07:50.725Z,99329.63
2017-04-25T07:08:52.083Z,99326.08
2017-04-25T07:09:53.353Z,99327.71
2017-04-25T07:10:54.759Z,99323.50
2017-04-25T07:11:56.185Z,99328.03
2017-04-25T07:12:57.332Z,99340.34
2017-04-25T07:13:58.650Z,99334.44
2017-04-25T07:14:59.676Z,99321.91
2017-04-25T07:16:01.030Z,99329.77
2017-04-25T07:17:02.390Z,99331.00
2017-04-25T07:18:03.841Z,99344.27
2017-04-25T07:19:05.138Z,99342.54
2017-04-25T07:20:06.385Z,99346.47
2017-04-25T07:21:07.842Z,99342.64
2017-04-25T07:22:09.160Z,99356.62
2017-04-25T07:23:10.443Z,99356.20
2017-04-25T07:24:11.736Z,99352.23
2017-04-25T07:25:13.080Z,99357.50
2017-04-25T07:26:14.304Z,99349.59
2017-04-25T07:27:15.748Z,99352.05
2017-04-25T07:28:16.983Z,99351.72
2017-04-25T07:29:18.320Z,99353.59
2017-04-25T07:30:19.659Z,99354.09
2017-04-25T07:31:20.584Z,99352.58
2017-04-25T07:32:21.685Z,99355.59
2017-04-25T07:33:22.835Z,99356.66
2017-04-25T07:34:23.949Z,99362.24
2017-04-25T07:35:24.880Z,99362.91
2017-04-25T07:36:26.088Z,99361.91
2017-04-25T07:37:27.206Z,99365.11
2017-04-25T07:38:28.389Z,99361.98
2017-04-25T07:39:29.593Z,99368.69
2017-04-25T07:40:30.697Z,99375.63
2017-04-25T07:41:31.846Z,99377.86
2017-04-25T07:42:33.275Z,99372.70
2017-04-25T07:43:34.473Z,99372.80
2017-04-25T07:44:35.593Z,99376.22
2017-04-25T07:45:36.688Z,99381.32
2017-04-25T07:46:37.821Z,99379.71
2017-04-25T07:47:38.976Z,99380.13
2017-04-25T07:48:40.154Z,99381.22
2017-04-25T07:49:41.294Z,99383.52
2017-04-25T07:50:42.436Z,99387.73
2017-04-25T07:51:43.722Z,99389.08
2017-04-25T07:52:44.733Z,99399.43
2017-04-25T07:53:45.942Z,99402.02
2017-04-25T07:54:47.070Z,99398.73
2017-04-25T07:55:48.164Z,99396.27
2017-04-25T07:56:49.260Z,99397.45
2017-04-25T07:57:50.498Z,99397.88
2017-04-25T07:58:51.693Z,99402.27
2017-04-25T07:59:52.890Z,99410.23
2017-04-25T08:00:54.030Z,99401.06
2017-04-25T08:01:55.193Z,99417.77
2017-04-25T08:02:56.295Z,99418.91
2017-04-25T08:03:57.405Z,99409.13
2017-04-25T08:04:58.765Z,99418.80
2017-04-25T08:05:59.968Z,99415.75
2017-04-25T08:07:01.081Z,99415.99
2017-04-25T08:08:02.200Z,99424.61
2017-04-25T08:09:03.723Z,99432.61
2017-04-25T08:10:04.974Z,99436.41
2017-04-25T08:11:06.793Z,99433.05
2017-04-25T08:12:08.019Z,99429.95
2017-04-25T08:13:09.166Z,99424.68
2017-04-25T08:14:10.427Z,99427.82
2017-04-25T08:15:11.543Z,99433.34
2017-04-25T08:16:12.553Z,99443.42
2017-04-25T08:17:13.731Z,99440.08
2017-04-25T08:18:14.916Z,99439.23
2017-04-25T08:19:16.111Z,99440.83
2017-04-25T08:20:17.195Z,99445.25
2017-04-25T08:21:18.361Z,99444.01
2017-04-25T08:22:19.503Z,99439.59
2017-04-25T08:23:20.646Z,99446.82
2017-04-25T08:24:21.818Z,99444.27
2017-04-25T08:25:22.980Z,99442.96
2017-04-25T08:26:24.233Z,99441.36
2017-04-25T08:27:25.227Z,99446.30
2017-04-25T08:28:26.328Z,99446.46
2017-04-25T08:29:27.563Z,99450.48
2017-04-25T08:30:28.563Z,99450.81
2017-04-25T08:31:29.701Z,99451.17
2017-04-25T08:32:30.932Z,99448.42
2017-04-25T08:33:32.083Z,99449.56
2017-04-25T08:34:33.334Z,99451.69
2017-04-25T08:35:34.565Z,99453.27
2017-04-25T08:36:35.711Z,99455.39
2017-04-25T08:37:36.941Z,99460.30
2017-04-25T08:38:38.092Z,99459.68
2017-04-25T08:39:39.262Z,99466.09
2017-04-25T08:40:40.469Z,99463.18
2017-04-25T08:41:41.697Z,99459.25
2017-04-25T08:42:42.882Z,99462.42
2017-04-25T08:43:44.014Z,99457.48
2017-04-25T08:44:45.109Z,99462.56
2017-04-25T08:45:46.278Z,99468.38
2017-04-25T08:46:47.254Z,99467.73
2017-04-25T08:47:48.371Z,99465.73
2017-04-25T08:48:49.491Z,99473.61
2017-04-25T08:49:50.629Z,99466.52
2017-04-25T08:50:51.763Z,99474.72
2017-04-25T08:51:52.976Z,99475.11
2017-04-25T08:52:54.104Z,99470.17
2017-04-25T08:53:55.211Z,99472.26
2017-04-25T08:54:56.351Z,99472.79
2017-04-25T08:55:57.441Z,99474.52
2017-04-25T08:56:58.915Z,99476.36
2017-04-25T08:58:00.175Z,99476.92
2017-04-25T08:59:01.472Z,99480.81
2017-04-25T09:00:02.673Z,99474.83
2017-04-25T09:01:03.718Z,99480.19
2017-04-25T09:02:04.985Z,99476.47
2017-04-25T09:03:06.541Z,99481.14
2017-04-25T09:04:07.541Z,99481.96
2017-04-25T09:05:09.077Z,99482.05
2017-04-25T09:06:10.241Z,99485.13
2017-04-25T09:07:11.178Z,99475.37
2017-04-25T09:08:12.392Z,99478.23
2017-04-25T09:09:13.523Z,99484.34
2017-04-25T09:10:15.521Z,99482.54
2017-04-25T09:11:16.481Z,99482.52
2017-04-25T09:12:17.598Z,99484.22
2017-04-25T09:13:18.768Z,99486.18
2017-04-25T09:14:20.009Z,99487.42
2017-04-25T09:15:21.327Z,99486.31
2017-04-25T09:16:22.679Z,99487.25
2017-04-25T09:17:24.027Z,99492.19
2017-04-25T09:18:25.165Z,99487.53
2017-04-25T09:19:26.646Z,99494.28
2017-04-25T09:20:27.840Z,99493.87
2017-04-25T09:21:29.261Z,99493.45
2017-04-25T09:22:30.590Z,99500.88
2017-04-25T09:23:31.955Z,99494.55
2017-04-25T09:24:33.540Z,99498.47
2017-04-25T09:25:35.030Z,99497.73
2017-04-25T09:26:36.375Z,99495.80
2017-04-25T09:27:37.648Z,99499.34
2017-04-25T09:28:38.792Z,99498.04
2017-04-25T09:29:39.968Z,99503.07
2017-04-25T09:30:41.182Z,99502.22
2017-04-25T09:31:42.316Z,99504.28
2017-04-25T09:32:43.277Z,99505.52
2017-04-25T09:33:44.487Z,99513.70
2017-04-25T09:34:45.609Z,99515.97
2017-04-25T09:35:46.803Z,99512.07
2017-04-25T09:36:47.959Z,99511.83
2017-04-25T09:37:49.095Z,99510.12
2017-04-25T09:38:50.207Z,99516.67
2017-04-25T09:39:51.372Z,99518.83
2017-04-25T09:40:52.655Z,99518.71
2017-04-25T09:41:53.811Z,99520.52
2017-04-25T09:42:55.057Z,99517.19
2017-04-25T09:43:56.180Z,99520.05
2017-04-25T09:44:57.286Z,99521.06
2017-04-25T09:45:58.551Z,99520.56
2017-04-25T09:46:59.519Z,99521.70
2017-04-25T09:48:00.686Z,99529.99
2017-04-25T09:49:01.616Z,99527.90
2017-04-25T09:50:02.711Z,99523.13
2017-04-25T09:51:04.058Z,99530.30
2017-04-25T09:52:05.291Z,99524.86
2017-04-25T09:53:06.449Z,99530.03
2017-04-25T09:54:07.665Z,99527.90
2017-04-25T09:55:08.922Z,99536.45
2017-04-25T09:56:10.345Z,99534.66
2017-04-25T09:57:11.478Z,99538.85
2017-04-25T09:58:12.725Z,99539.70
2017-04-25T09:59:14.273Z,99540.73
2017-04-25T10:00:15.519Z,99540.50
2017-04-25T10:01:16.765Z,99543.19
2017-04-25T10:02:17.715Z,99542.79
2017-04-25T10:03:18.885Z,99548.42
2017-04-25T10:04:19.997Z,99548.88
2017-04-25T10:05:21.511Z,99545.97
2017-04-25T10:06:22.889Z,99550.91
2017-04-25T10:07:24.211Z,99550.36
2017-04-25T10:08:25.541Z,99553.34
2017-04-25T10:09:26.797Z,99553.07
2017-04-25T10:10:28.132Z,99557.00
2017-04-25T10:11:29.406Z,99552.05
2017-04-25T10:12:30.814Z,99562.27
2017-04-25T10:13:32.250Z,99561.22
2017-04-25T10:14:33.665Z,99560.34
2017-04-25T10:15:34.898Z,99560.34
2017-04-25T10:16:36.370Z,99566.50
2017-04-25T10:17:37.582Z,99560.80
2017-04-25T10:18:38.922Z,99564.47
2017-04-25T10:19:40.178Z,99570.12
2017-04-25T10:20:41.516Z,99568.13
2017-04-25T10:21:42.809Z,99569.67
2017-04-25T10:22:44.072Z,99569.18
2017-04-25T10:23:45.315Z,99569.86
2017-04-25T10:24:46.550Z,99565.74
2017-04-25T10:25:47.695Z,99561.13
2017-04-25T10:26:49.035Z,99564.63
2017-04-25T10:27:50.285Z,99563.91
2017-04-25T10:28:51.821Z,99557.81
2017-04-25T10:29:53.348Z,99565.64
2017-04-25T10:30:54.465Z,99560.70
2017-04-25T10:31:56.088Z,99560.66
2017-04-25T10:32:57.407Z,99561.58
2017-04-25T10:33:58.893Z,99563.05
2017-04-25T10:35:00.046Z,99559.13
2017-04-25T10:36:01.694Z,99553.07
2017-04-25T10:37:02.933Z,99556.28
2017-04-25T10:38:04.217Z,99561.35
2017-04-25T10:39:05.906Z,99551.27
2017-04-25T10:40:07.148Z,99557.52
2017-04-25T10:41:08.380Z,99556.28
2017-04-25T10:42:09.509Z,99559.45
2017-04-25T10:43:10.788Z,99564.44
2017-04-25T10:44:12.119Z,99558.97
2017-04-25T10:45:13.358Z,99558.18
2017-04-25T10:46:14.646Z,99564.63
2017-04-25T10:47:16.033Z,99561.09
2017-04-25T10:48:17.249Z,99569.21
2017-04-25T10:49:18.691Z,99563.97
2017-04-25T10:50:20.036Z,99559.62
2017-04-25T10:51:21.146Z,99565.34
2017-04-25T10:52:22.386Z,99560.36
2017-04-25T10:53:23.616Z,99558.17
2017-04-25T10:54:25.388Z,99566.59
2017-04-25T10:55:26.721Z,99564.06
2017-04-25T10:56:27.940Z,99565.12
2017-04-25T10:57:29.376Z,99563.34
2017-04-25T10:58:30.485Z,99564.69
2017-04-25T10:59:31.747Z,99568.09
2017-04-25T11:00:32.865Z,99559.25
2017-04-25T11:01:33.848Z,99564.20
2017-04-25T11:02:34.826Z,99566.13
2017-04-25T11:03:35.748Z,99565.55
2017-04-25T11:04:36.883Z,99565.80
2017-04-25T11:05:38.008Z,99568.29
2017-04-25T11:06:39.009Z,99569.14
2017-04-25T11:07:40.176Z,99565.21
2017-04-25T11:08:41.169Z,99560.16
2017-04-25T11:09:42.289Z,99565.66
2017-04-25T11:10:48.718Z,99565.23
2017-04-25T11:11:50.015Z,99565.56
2017-04-25T11:12:51.249Z,99558.37
2017-04-25T11:13:52.588Z,99560.95
2017-04-25T11:14:53.982Z,99562.36
2017-04-25T11:15:55.153Z,99567.14
2017-04-25T11:16:56.497Z,99562.84
2017-04-25T11:17:57.521Z,99568.94
2017-04-25T11:18:58.740Z,99568.70
2017-04-25T11:20:00.066Z,99569.76
2017-04-25T11:21:01.330Z,99569.33
2017-04-25T11:22:02.749Z,99570.44
2017-04-25T11:23:03.926Z,99574.53
2017-04-25T11:24:05.188Z,99573.61
2017-04-25T11:25:06.485Z,99575.67
2017-04-25T11:26:07.505Z,99574.52
2017-04-25T11:27:08.876Z,99575.66
2017-04-25T11:28:09.904Z,99572.66
2017-04-25T11:29:11.221Z,99568.27
2017-04-25T11:30:12.660Z,99577.88
2017-04-25T11:31:13.794Z,99580.58
2017-04-25T11:32:15.021Z,99587.45
2017-04-25T11:33:16.205Z,99582.25
2017-04-25T11:34:17.436Z,99587.25
2017-04-25T11:35:18.727Z,99588.48
2017-04-25T11:36:19.868Z,99592.92
2017-04-25T11:37:20.941Z,99592.88
2017-04-25T11:38:22.226Z,99591.47
2017-04-25T11:39:23.189Z,99595.98
2017-04-25T11:40:24.600Z,99597.85
2017-04-25T11:41:25.736Z,99600.41
2017-04-25T11:42:27.083Z,99602.30
2017-04-25T11:43:28.323Z,99595.63
2017-04-25T11:44:29.588Z,99597.37
2017-04-25T11:45:30.764Z,99599.78
2017-04-25T11:46:32.013Z,99600.42
2017-04-25T11:47:33.044Z,99606.55
2017-04-25T11:48:34.492Z,99605.34
2017-04-25T11:49:35.733Z,99600.20
2017-04-25T11:50:37.280Z,99603.03
2017-04-25T11:51:38.580Z,99602.14
2017-04-25T11:52:40.063Z,99595.66
2017-04-25T11:53:41.266Z,99600.03
2017-04-25T11:54:42.408Z,99601.91
2017-04-25T11:55:43.626Z,99605.41
2017-04-25T11:56:44.874Z,99612.03
2017-04-25T11:57:46.171Z,99613.59
2017-04-25T11:58:47.579Z,99606.30
2017-04-25T11:59:48.878Z,99610.98
2017-04-25T12:00:50.237Z,99612.22
2017-04-25T12:01:51.472Z,99607.54
2017-04-25T12:02:52.806Z,99611.73
2017-04-25T12:03:54.056Z,99606.19